createdAt,value
2023-04-22T00:01:30.512Z,95.20
2023-04-22T00:03:59.790Z,95.30
2023-04-22T00:06:29.176Z,95.30
2023-04-22T00:08:58.134Z,95.30
2023-04-22T00:11:28.666Z,95.30
2023-04-22T00:13:57.766Z,95.30
2023-04-22T00:16:27.599Z,95.40
2023-04-22T00:18:56.595Z,95.40
2023-04-22T00:21:25.625Z,95.50
2023-04-22T00:23:54.654Z,95.60
2023-04-22T00:26:23.711Z,95.70
2023-04-22T00:28:54.237Z,95.80
2023-04-22T00:31:23.529Z,95.90
2023-04-22T00:33:52.931Z,95.90
2023-04-22T00:36:21.953Z,96.00
2023-04-22T00:38:52.463Z,96.10
2023-04-22T00:41:21.788Z,96.20
2023-04-22T00:43:52.959Z,96.30
2023-04-22T00:46:23.327Z,96.50
2023-04-22T00:48:52.974Z,96.70
2023-04-22T00:51:22.241Z,96.90
2023-04-22T00:53:51.127Z,97.20
2023-04-22T00:56:21.962Z,97.00
2023-04-22T00:58:51.422Z,97.10
2023-04-22T01:01:21.008Z,97.20
2023-04-22T01:03:53.230Z,97.30
2023-04-22T01:06:23.797Z,97.40
2023-04-22T01:08:53.145Z,97.40
2023-04-22T01:11:22.266Z,97.40
2023-04-22T01:13:51.762Z,97.40
2023-04-22T01:16:21.032Z,97.50
2023-04-22T01:18:53.101Z,97.60
2023-04-22T01:21:23.034Z,97.80
2023-04-22T01:23:53.851Z,97.80
2023-04-22T01:26:23.034Z,98.00
2023-04-22T01:28:52.257Z,98.00
2023-04-22T01:31:21.885Z,98.20
2023-04-22T01:33:51.725Z,98.30
2023-04-22T01:36:20.796Z,98.30
2023-04-22T01:38:49.793Z,98.40
2023-04-22T01:41:21.534Z,98.50
2023-04-22T01:43:51.192Z,98.50
2023-04-22T01:46:20.348Z,98.60
2023-04-22T01:48:51.677Z,98.70
2023-04-22T01:51:21.849Z,98.90
2023-04-22T01:53:51.207Z,99.00
2023-04-22T01:56:21.865Z,99.10
2023-04-22T01:58:51.429Z,99.20
2023-04-22T02:01:20.488Z,99.20
2023-04-22T02:03:49.712Z,99.30
2023-04-22T02:06:18.782Z,99.40
2023-04-22T02:08:47.728Z,99.50
2023-04-22T02:11:17.229Z,99.50
2023-04-22T02:13:47.619Z,99.50
2023-04-22T02:16:16.790Z,99.40
2023-04-22T02:18:45.805Z,99.30
2023-04-22T02:21:14.872Z,99.20
2023-04-22T02:23:44.074Z,99.10
2023-04-22T02:26:13.027Z,99.20
2023-04-22T02:28:42.976Z,99.20
2023-04-22T02:31:13.503Z,99.20
2023-04-22T02:33:42.850Z,99.20
2023-04-22T02:36:12.023Z,99.20
2023-04-22T02:38:41.134Z,99.20
2023-04-22T02:41:10.840Z,99.20
2023-04-22T02:43:42.009Z,99.20
2023-04-22T02:46:16.352Z,99.30
2023-04-22T02:48:45.663Z,99.40
2023-04-22T02:51:14.617Z,99.50
2023-04-22T02:53:43.873Z,99.60
2023-04-22T02:56:12.904Z,99.60
2023-04-22T02:58:41.959Z,99.70
2023-04-22T03:01:12.577Z,99.70
2023-04-22T03:03:42.025Z,99.80
2023-04-22T03:06:14.058Z,99.80
2023-04-22T03:08:43.199Z,99.80
2023-04-22T03:11:14.063Z,99.90
2023-04-22T03:13:44.380Z,99.90
2023-04-22T03:16:15.376Z,99.90
2023-04-22T03:18:44.604Z,99.90
2023-04-22T03:21:13.635Z,99.90
2023-04-22T03:23:42.925Z,99.90
2023-04-22T03:26:13.896Z,99.90
2023-04-22T03:28:44.539Z,99.90
2023-04-22T03:31:15.045Z,99.90
2023-04-22T03:33:44.141Z,99.90
2023-04-22T03:36:21.656Z,99.90
2023-04-22T03:38:51.284Z,99.90
2023-04-22T03:41:20.602Z,99.90
2023-04-22T03:43:50.757Z,99.90
2023-04-22T03:46:21.480Z,99.90
2023-04-22T03:49:10.771Z,99.90
2023-04-22T03:51:43.471Z,99.90
2023-04-22T03:54:16.735Z,99.90
2023-04-22T03:56:55.516Z,99.90
2023-04-22T03:59:25.706Z,99.90
2023-04-22T04:01:56.414Z,99.90
2023-04-22T04:04:28.627Z,99.90
2023-04-22T04:07:01.809Z,99.90
2023-04-22T04:09:31.500Z,99.90
2023-04-22T04:12:01.426Z,99.90
2023-04-22T04:14:34.385Z,99.90
2023-04-22T04:17:09.945Z,99.90
2023-04-22T04:19:39.565Z,99.90
2023-04-22T04:22:09.837Z,99.90
2023-04-22T04:24:44.955Z,99.90
2023-04-22T04:27:20.115Z,99.80
2023-04-22T04:29:56.217Z,99.50
2023-04-22T04:32:53.632Z,99.30
2023-04-22T04:35:24.083Z,98.70
2023-04-22T04:37:56.968Z,98.50
2023-04-22T04:40:26.762Z,98.20
2023-04-22T04:43:09.416Z,98.10
2023-04-22T04:45:49.189Z,97.30
2023-04-22T04:48:25.858Z,97.30
2023-04-22T04:51:00.136Z,97.00
2023-04-22T04:53:32.250Z,96.60
2023-04-22T04:56:01.582Z,96.30
2023-04-22T04:58:31.947Z,95.90
2023-04-22T05:01:24.109Z,95.90
2023-04-22T05:03:55.806Z,96.20
2023-04-22T05:06:25.101Z,96.80
2023-04-22T05:09:08.462Z,96.70
2023-04-22T05:11:38.537Z,96.30
2023-04-22T05:14:14.286Z,95.70
2023-04-22T05:16:45.004Z,95.10
2023-04-22T05:19:16.743Z,94.60
2023-04-22T05:21:46.623Z,94.60
2023-04-22T05:24:16.828Z,94.40
2023-04-22T05:26:46.000Z,94.30
2023-04-22T05:29:18.861Z,93.90
2023-04-22T05:31:48.543Z,94.10
2023-04-22T05:34:19.110Z,93.80
2023-04-22T05:36:48.221Z,93.40
2023-04-22T05:39:17.334Z,93.20
2023-04-22T05:41:47.165Z,93.20
2023-04-22T05:44:17.788Z,92.60
2023-04-22T05:46:47.618Z,91.20
2023-04-22T05:49:19.365Z,90.10
2023-04-22T05:52:00.730Z,90.10
2023-04-22T05:54:37.059Z,88.40
2023-04-22T05:57:06.399Z,88.20
2023-04-22T05:59:35.818Z,85.90
2023-04-22T06:02:05.556Z,84.30
2023-04-22T06:04:37.716Z,83.80
2023-04-22T06:07:07.995Z,82.80
2023-04-22T06:09:37.193Z,83.20
2023-04-22T06:12:06.629Z,83.60
2023-04-22T06:14:36.261Z,84.00
2023-04-22T06:17:05.636Z,82.00
2023-04-22T06:19:36.099Z,80.50
2023-04-22T06:22:05.277Z,79.00
2023-04-22T06:24:34.540Z,78.30
2023-04-22T06:27:03.696Z,78.00
2023-04-22T06:29:37.414Z,78.20
2023-04-22T06:32:07.486Z,78.50
2023-04-22T06:34:38.944Z,77.20
2023-04-22T06:37:08.942Z,75.40
2023-04-22T06:39:38.562Z,75.30
2023-04-22T06:42:27.918Z,74.00
2023-04-22T06:45:17.337Z,75.20
2023-04-22T06:47:57.788Z,74.70
2023-04-22T06:50:46.760Z,73.90
2023-04-22T06:53:15.817Z,72.20
2023-04-22T06:55:45.525Z,72.10
2023-04-22T06:58:14.570Z,72.40
2023-04-22T07:00:44.938Z,72.60
2023-04-22T07:03:14.302Z,72.10
2023-04-22T07:05:43.596Z,71.30
2023-04-22T07:08:24.092Z,70.40
2023-04-22T07:11:00.377Z,69.50
2023-04-22T07:13:37.411Z,68.70
2023-04-22T07:16:25.031Z,69.10
2023-04-22T07:18:54.339Z,69.90
2023-04-22T07:21:23.354Z,70.40
2023-04-22T07:23:54.257Z,70.00
2023-04-22T07:26:23.633Z,69.90
2023-04-22T07:28:52.880Z,69.10
2023-04-22T07:31:22.757Z,69.00
2023-04-22T07:33:51.898Z,68.90
2023-04-22T07:36:21.031Z,69.30
2023-04-22T07:38:51.979Z,70.10
2023-04-22T07:41:24.076Z,70.00
2023-04-22T07:43:56.188Z,69.50
2023-04-22T07:46:25.971Z,68.90
2023-04-22T07:48:56.582Z,69.10
2023-04-22T07:51:26.534Z,70.80
2023-04-22T07:53:57.618Z,69.70
2023-04-22T07:56:29.106Z,66.80
2023-04-22T07:59:01.921Z,67.10
2023-04-22T08:01:31.146Z,64.60
2023-04-22T08:04:00.303Z,62.80
2023-04-22T08:06:29.692Z,60.90
2023-04-22T08:08:58.805Z,59.70
2023-04-22T08:11:29.333Z,59.00
2023-04-22T08:13:58.550Z,58.50
2023-04-22T08:16:27.667Z,58.30
2023-04-22T08:18:58.046Z,58.90
2023-04-22T08:21:27.627Z,58.60
2023-04-22T08:23:56.652Z,56.80
2023-04-22T08:26:26.038Z,56.00
2023-04-22T08:28:56.713Z,55.70
2023-04-22T08:31:26.041Z,55.30
2023-04-22T08:33:55.338Z,56.10
2023-04-22T08:36:26.192Z,54.70
2023-04-22T08:38:55.615Z,54.60
2023-04-22T08:41:25.619Z,54.90
2023-04-22T08:43:57.455Z,55.00
2023-04-22T08:46:28.944Z,54.60
2023-04-22T08:48:59.781Z,54.60
2023-04-22T08:51:29.271Z,54.30
2023-04-22T08:53:58.322Z,54.60
2023-04-22T08:56:29.200Z,54.70
2023-04-22T08:59:00.313Z,54.50
2023-04-22T09:01:32.804Z,53.90
2023-04-22T09:04:03.395Z,53.70
2023-04-22T09:06:33.812Z,52.70
2023-04-22T09:09:03.074Z,52.40
2023-04-22T09:11:33.527Z,51.80
2023-04-22T09:14:05.021Z,52.50
2023-04-22T09:16:34.532Z,52.60
2023-04-22T09:19:03.654Z,51.10
2023-04-22T09:21:35.464Z,51.70
2023-04-22T09:24:04.872Z,51.90
2023-04-22T09:26:34.277Z,51.40
2023-04-22T09:29:09.494Z,50.40
2023-04-22T09:31:38.686Z,50.10
2023-04-22T09:34:08.781Z,49.70
2023-04-22T09:36:44.275Z,50.70
2023-04-22T09:39:18.857Z,49.90
2023-04-22T09:41:55.823Z,48.60
2023-04-22T09:44:29.656Z,48.10
2023-04-22T09:46:58.821Z,48.40
2023-04-22T09:49:29.212Z,47.90
2023-04-22T09:52:01.102Z,47.90
2023-04-22T09:54:30.482Z,48.60
2023-04-22T09:56:59.561Z,47.80
2023-04-22T09:59:32.343Z,48.30
2023-04-22T10:02:04.429Z,48.40
2023-04-22T10:04:34.453Z,47.90
2023-04-22T10:07:04.049Z,47.50
2023-04-22T10:09:33.535Z,47.30
2023-04-22T10:12:03.594Z,46.60
2023-04-22T10:14:34.440Z,44.20
2023-04-22T10:17:05.170Z,44.50
2023-04-22T10:19:35.726Z,45.40
2023-04-22T10:22:05.707Z,45.60
2023-04-22T10:24:38.422Z,45.60
2023-04-22T10:27:08.662Z,45.60
2023-04-22T10:29:41.178Z,45.30
2023-04-22T10:32:25.945Z,44.00
2023-04-22T10:35:11.179Z,44.80
2023-04-22T10:37:43.844Z,43.70
2023-04-22T10:40:16.611Z,44.30
2023-04-22T10:42:50.907Z,44.60
2023-04-22T10:45:27.498Z,44.70
2023-04-22T10:47:56.811Z,45.20
2023-04-22T10:50:27.581Z,46.20
2023-04-22T10:52:59.278Z,46.60
2023-04-22T10:55:56.524Z,48.00
2023-04-22T10:58:26.933Z,47.80
2023-04-22T11:01:03.378Z,48.60
2023-04-22T11:03:32.991Z,49.20
2023-04-22T11:06:19.248Z,48.80
2023-04-22T11:08:49.277Z,48.70
2023-04-22T11:11:36.974Z,50.40
2023-04-22T11:14:06.741Z,48.60
2023-04-22T11:16:38.641Z,48.60
2023-04-22T11:19:07.829Z,48.80
2023-04-22T11:21:36.861Z,46.80
2023-04-22T11:24:06.472Z,46.20
2023-04-22T11:26:36.432Z,45.90
2023-04-22T11:29:05.795Z,45.00
2023-04-22T11:31:36.635Z,44.20
2023-04-22T11:34:10.238Z,44.60
2023-04-22T11:36:39.401Z,44.60
2023-04-22T11:39:15.204Z,43.70
2023-04-22T11:41:44.579Z,43.60
2023-04-22T11:44:16.420Z,43.60
2023-04-22T11:46:46.389Z,44.00
2023-04-22T11:49:17.936Z,44.80
2023-04-22T11:51:57.083Z,45.40
2023-04-22T11:54:44.670Z,46.00
2023-04-22T11:57:15.903Z,46.60
2023-04-22T11:59:45.170Z,47.10
2023-04-22T12:02:14.137Z,46.40
2023-04-22T12:04:45.807Z,46.20
2023-04-22T12:07:16.634Z,46.50
2023-04-22T12:09:45.930Z,46.50
2023-04-22T12:12:16.298Z,46.80
2023-04-22T12:14:48.037Z,47.20
2023-04-22T12:17:20.220Z,47.60
2023-04-22T12:19:54.797Z,47.30
2023-04-22T12:22:27.823Z,47.60
2023-04-22T12:25:20.916Z,47.50
2023-04-22T12:27:49.910Z,47.40
2023-04-22T12:30:18.926Z,47.10
2023-04-22T12:32:47.964Z,46.50
2023-04-22T12:35:19.458Z,46.20
2023-04-22T12:37:49.975Z,45.50
2023-04-22T12:40:19.715Z,45.80
2023-04-22T12:42:48.755Z,45.60
2023-04-22T12:45:17.886Z,46.00
2023-04-22T12:47:47.403Z,45.10
2023-04-22T12:50:17.808Z,45.30
2023-04-22T12:53:05.114Z,45.50
2023-04-22T12:55:34.520Z,46.60
2023-04-22T12:58:04.301Z,46.90
2023-04-22T13:00:33.583Z,47.60
2023-04-22T13:03:02.740Z,45.60
2023-04-22T13:05:33.646Z,44.00
2023-04-22T13:08:07.549Z,43.30
2023-04-22T13:10:37.743Z,42.90
2023-04-22T13:15:40.243Z,43.20
2023-04-22T13:18:09.320Z,43.80
2023-04-22T13:20:40.126Z,44.60
2023-04-22T13:23:09.859Z,45.20
2023-04-22T13:25:39.152Z,44.90
2023-04-22T13:28:08.329Z,45.00
2023-04-22T13:30:38.604Z,44.80
2023-04-22T13:33:16.548Z,43.70
2023-04-22T13:35:53.861Z,43.70
2023-04-22T13:38:23.094Z,44.30
2023-04-22T13:40:52.177Z,43.30
2023-04-22T13:43:25.045Z,42.50
2023-04-22T13:45:55.448Z,41.90
2023-04-22T13:48:24.567Z,42.30
2023-04-22T13:50:55.131Z,42.80
2023-04-22T13:53:24.342Z,42.80
2023-04-22T13:55:53.519Z,42.80
2023-04-22T13:58:22.579Z,42.50
2023-04-22T14:00:51.637Z,42.40
2023-04-22T14:03:20.934Z,42.20
2023-04-22T14:05:50.200Z,42.80
2023-04-22T14:08:24.159Z,43.10
2023-04-22T14:10:53.505Z,42.80
2023-04-22T14:13:23.836Z,42.80
2023-04-22T14:15:52.938Z,42.80
2023-04-22T14:18:23.584Z,43.20
2023-04-22T14:20:59.932Z,43.20
2023-04-22T14:23:30.866Z,43.40
2023-04-22T14:26:29.107Z,43.60
2023-04-22T14:28:59.432Z,44.40
2023-04-22T14:31:28.597Z,44.60
2023-04-22T14:33:57.617Z,44.90
2023-04-22T14:36:27.866Z,45.30
2023-04-22T14:39:16.567Z,45.30
2023-04-22T14:41:45.734Z,45.50
2023-04-22T14:44:15.741Z,46.20
2023-04-22T14:46:45.450Z,46.60
2023-04-22T14:49:14.552Z,47.10
2023-04-22T14:51:43.498Z,47.60
2023-04-22T14:54:14.241Z,48.00
2023-04-22T14:56:45.898Z,47.70
2023-04-22T14:59:15.102Z,47.60
2023-04-22T15:01:44.473Z,47.90
2023-04-22T15:04:15.197Z,47.70
2023-04-22T15:07:03.052Z,47.90
2023-04-22T15:09:33.309Z,47.90
2023-04-22T15:12:05.532Z,47.70
2023-04-22T15:14:36.292Z,47.70
2023-04-22T15:17:05.984Z,48.00
2023-04-22T15:19:34.992Z,48.30
2023-04-22T15:22:04.116Z,48.70
2023-04-22T15:24:33.253Z,48.70
2023-04-22T15:27:04.374Z,48.90
2023-04-22T15:29:33.371Z,48.70
2023-04-22T15:32:02.437Z,48.60
2023-04-22T15:34:31.798Z,48.40
2023-04-22T15:37:00.645Z,48.60
2023-04-22T15:39:29.568Z,48.80
2023-04-22T15:41:58.882Z,49.00
2023-04-22T15:44:29.365Z,49.30
2023-04-22T15:47:00.135Z,49.50
2023-04-22T15:49:29.442Z,49.90
2023-04-22T15:51:59.240Z,50.40
2023-04-22T15:54:28.281Z,50.60
2023-04-22T15:56:57.742Z,50.70
2023-04-22T15:59:26.668Z,50.90
2023-04-22T16:01:57.199Z,50.40
2023-04-22T16:04:26.528Z,50.50
2023-04-22T16:06:57.520Z,50.70
2023-04-22T16:09:26.561Z,51.00
2023-04-22T16:11:56.197Z,51.60
2023-04-22T16:14:25.238Z,52.10
2023-04-22T16:16:54.185Z,52.40
2023-04-22T16:19:24.686Z,52.90
2023-04-22T16:21:53.964Z,53.30
2023-04-22T16:24:23.068Z,53.70
2023-04-22T16:26:52.318Z,54.00
2023-04-22T16:29:21.326Z,54.50
2023-04-22T16:31:50.402Z,54.90
2023-04-22T16:34:26.621Z,55.60
2023-04-22T16:37:14.283Z,55.10
2023-04-22T16:39:43.312Z,54.90
2023-04-22T16:42:31.459Z,55.00
2023-04-22T16:45:00.466Z,55.40
2023-04-22T16:47:29.602Z,55.50
2023-04-22T16:50:00.088Z,55.50
2023-04-22T16:52:29.436Z,55.80
2023-04-22T16:54:58.558Z,56.30
2023-04-22T16:57:27.548Z,56.60
2023-04-22T16:59:56.508Z,57.10
2023-04-22T17:02:26.025Z,57.40
2023-04-22T17:04:55.130Z,57.50
2023-04-22T17:07:25.661Z,57.80
2023-04-22T17:09:54.903Z,58.00
2023-04-22T17:12:23.959Z,58.20
2023-04-22T17:14:53.224Z,58.10
2023-04-22T17:17:22.188Z,58.20
2023-04-22T17:19:51.189Z,58.50
2023-04-22T17:22:20.546Z,58.80
2023-04-22T17:24:51.151Z,59.60
2023-04-22T17:27:20.329Z,59.30
2023-04-22T17:29:49.299Z,59.60
2023-04-22T17:32:18.619Z,59.80
2023-04-22T17:34:47.627Z,59.90
2023-04-22T17:37:16.639Z,60.00
2023-04-22T17:39:45.716Z,60.30
2023-04-22T17:42:17.812Z,60.80
2023-04-22T17:44:48.090Z,61.30
2023-04-22T17:47:17.524Z,61.60
2023-04-22T17:49:46.428Z,61.70
2023-04-22T17:52:15.902Z,61.60
2023-04-22T17:54:45.197Z,61.60
2023-04-22T17:57:16.321Z,62.10
2023-04-22T17:59:49.382Z,62.60
2023-04-22T18:02:18.929Z,62.80
2023-04-22T18:04:48.514Z,63.10
2023-04-22T18:07:18.278Z,63.80
2023-04-22T18:09:48.347Z,64.00
2023-04-22T18:12:20.863Z,64.20
2023-04-22T18:14:49.973Z,64.40
2023-04-22T18:17:20.398Z,64.60
2023-04-22T18:19:51.109Z,64.70
2023-04-22T18:22:21.335Z,64.70
2023-04-22T18:24:53.663Z,64.80
2023-04-22T18:27:25.282Z,65.10
2023-04-22T18:29:55.481Z,65.20
2023-04-22T18:32:24.812Z,65.10
2023-04-22T18:34:53.976Z,65.30
2023-04-22T18:37:30.185Z,65.40
2023-04-22T18:39:59.387Z,65.70
2023-04-22T18:42:29.933Z,66.10
2023-04-22T18:44:59.088Z,66.50
2023-04-22T18:47:28.535Z,66.70
2023-04-22T18:49:57.734Z,66.80
2023-04-22T18:52:28.477Z,66.90
2023-04-22T18:54:58.378Z,67.20
2023-04-22T18:57:28.904Z,67.40
2023-04-22T18:59:57.959Z,67.10
2023-04-22T19:02:27.945Z,66.80
2023-04-22T19:04:57.249Z,65.70
2023-04-22T19:07:26.499Z,64.70
2023-04-22T19:09:55.760Z,64.00
2023-04-22T19:12:25.771Z,63.30
2023-04-22T19:15:00.182Z,63.20
2023-04-22T19:17:29.759Z,63.10
2023-04-22T19:19:58.808Z,63.10
2023-04-22T19:22:28.369Z,63.00
2023-04-22T19:25:16.278Z,62.90
2023-04-22T19:27:45.362Z,62.90
2023-04-22T19:30:16.605Z,62.60
2023-04-22T19:32:45.907Z,62.50
2023-04-22T19:35:16.655Z,62.50
2023-04-22T19:37:47.726Z,62.50
2023-04-22T19:40:18.759Z,62.50
2023-04-22T19:42:48.173Z,62.70
2023-04-22T19:45:18.914Z,62.70
2023-04-22T19:47:48.773Z,62.80
2023-04-22T19:50:18.572Z,62.90
2023-04-22T19:52:48.528Z,62.80
2023-04-22T19:55:18.267Z,62.70
2023-04-22T19:57:48.377Z,62.70
2023-04-22T20:00:20.640Z,62.80
2023-04-22T20:02:50.752Z,62.70
2023-04-22T20:05:21.204Z,62.80
2023-04-22T20:07:52.306Z,63.00
2023-04-22T20:10:22.958Z,63.30
2023-04-22T20:12:52.524Z,63.30
2023-04-22T20:15:23.419Z,63.20
2023-04-22T20:17:55.403Z,63.20
2023-04-22T20:20:25.698Z,63.30
2023-04-22T20:22:56.413Z,63.30
2023-04-22T20:25:27.219Z,63.40
2023-04-22T20:27:57.852Z,63.20
2023-04-22T20:30:29.104Z,63.00
2023-04-22T20:33:01.693Z,63.20
2023-04-22T20:35:32.264Z,63.20
2023-04-22T20:38:20.773Z,63.30
2023-04-22T20:40:52.036Z,63.40
2023-04-22T20:43:24.828Z,63.40
2023-04-22T20:45:59.223Z,63.90
2023-04-22T20:48:28.825Z,63.90
2023-04-22T20:50:58.222Z,64.40
2023-04-22T20:53:28.747Z,64.70
2023-04-22T20:55:58.364Z,65.30
2023-04-22T20:58:28.294Z,65.90
2023-04-22T21:00:59.144Z,66.60
2023-04-22T21:03:32.541Z,66.60
2023-04-22T21:06:03.905Z,67.10
2023-04-22T21:08:35.425Z,67.20
2023-04-22T21:11:05.271Z,67.60
2023-04-22T21:13:54.449Z,67.90
2023-04-22T21:16:29.865Z,68.00
2023-04-22T21:19:17.929Z,67.90
2023-04-22T21:21:49.971Z,67.80
2023-04-22T21:24:20.014Z,67.90
2023-04-22T21:26:50.479Z,68.00
2023-04-22T21:29:20.167Z,67.90
2023-04-22T21:32:09.941Z,67.90
2023-04-22T21:34:39.597Z,68.00
2023-04-22T21:37:09.796Z,68.30
2023-04-22T21:39:38.859Z,68.50
2023-04-22T21:42:09.062Z,68.80
2023-04-22T21:44:38.915Z,68.90
2023-04-22T21:47:09.517Z,69.20
2023-04-22T21:49:38.570Z,69.30
2023-04-22T21:52:07.939Z,69.50
2023-04-22T21:54:37.172Z,69.70
2023-04-22T21:57:06.303Z,69.90
2023-04-22T21:59:35.472Z,70.10
2023-04-22T22:02:04.566Z,70.50
2023-04-22T22:04:35.407Z,70.80
2023-04-22T22:07:04.825Z,71.10
2023-04-22T22:09:34.221Z,71.20
2023-04-22T22:12:04.481Z,71.60
2023-04-22T22:14:34.093Z,71.70
2023-04-22T22:17:03.182Z,72.00
2023-04-22T22:19:32.312Z,72.10
2023-04-22T22:22:02.919Z,72.30
2023-04-22T22:24:32.680Z,72.40
2023-04-22T22:27:01.997Z,72.70
2023-04-22T22:29:31.472Z,72.80
2023-04-22T22:32:00.723Z,73.20
2023-04-22T22:34:30.785Z,73.50
2023-04-22T22:37:01.732Z,73.90
2023-04-22T22:39:31.234Z,74.30
2023-04-22T22:42:00.461Z,74.70
2023-04-22T22:44:29.380Z,75.10
2023-04-22T22:46:59.064Z,75.50
2023-04-22T22:49:30.325Z,75.80
2023-04-22T22:52:00.485Z,76.10
2023-04-22T22:54:31.080Z,76.20
2023-04-22T22:57:02.065Z,76.50
2023-04-22T22:59:31.004Z,76.60
2023-04-22T23:02:18.670Z,76.80
2023-04-22T23:04:59.884Z,77.70
2023-04-22T23:07:29.028Z,77.30
2023-04-22T23:09:59.528Z,77.60
2023-04-22T23:12:28.434Z,77.90
2023-04-22T23:14:57.465Z,78.00
2023-04-22T23:17:26.626Z,78.00
2023-04-22T23:19:56.917Z,78.20
2023-04-22T23:22:28.023Z,78.90
2023-04-22T23:25:03.205Z,78.30
2023-04-22T23:27:33.142Z,78.40
2023-04-22T23:30:03.154Z,78.60
2023-04-22T23:32:34.470Z,78.70
2023-04-22T23:35:05.350Z,78.60
2023-04-22T23:37:36.095Z,78.50
2023-04-22T23:40:08.029Z,78.40
2023-04-22T23:42:37.233Z,78.30
2023-04-22T23:45:06.942Z,77.90
2023-04-22T23:47:36.098Z,78.00
2023-04-22T23:50:06.204Z,77.80
2023-04-22T23:52:53.822Z,77.80
2023-04-22T23:55:26.212Z,77.60
2023-04-22T23:58:02.504Z,77.60
